Time;durP1;ratioP1;P1;durP2;ratioP2;P2;SDS_P1;SDS_P2;PMS_P1;PMS_P2;Temp;Humidity;BMP_temperature;BMP_pressure;BME280_temperature;BME280_humidity;BME280_pressure;Samples;Min_cycle;Max_cycle;Signal;HPM_P1;HPM_P2
2021/11/30 00:01:38;;;;;;;0.50;0.45;;;;;;;10.31;62.72;95682.75;3390222;29;20469;-74
2021/11/30 00:03:18;;;;;;;0.57;0.57;;;;;;;10.32;62.73;95665.69;3390939;29;20054;-73
2021/11/30 00:04:59;;;;;;;0.75;0.50;;;;;;;10.33;62.89;95656.63;3391277;29;20508;-73
2021/11/30 00:06:41;;;;;;;2.65;0.55;;;;;;;10.33;62.80;95635.34;3391255;29;20039;-73
2021/11/30 00:08:27;;;;;;;0.50;0.50;;;;;;;10.34;62.85;95634.25;3402152;29;20032;-73
2021/11/30 00:11:49;;;;;;;0.40;0.40;;;;;;;10.36;63.13;95629.44;3402369;29;20559;-73
2021/11/30 00:13:32;;;;;;;1.17;0.50;;;;;;;10.35;62.88;95614.56;3391718;29;20036;-72
2021/11/30 00:15:12;;;;;;;;;;;;;;;10.45;62.61;95600.25;3390819;29;20076;-72
2021/11/30 00:16:53;;;;;;;0.55;0.45;;;;;;;10.37;62.80;95585.75;3390639;29;20275;-73
2021/11/30 00:18:34;;;;;;;4.47;0.80;;;;;;;10.38;62.86;95574.03;3390954;29;20796;-72
2021/11/30 00:20:15;;;;;;;0.82;0.82;;;;;;;10.39;63.17;95575.63;3391626;29;20044;-74
2021/11/30 00:21:56;;;;;;;0.50;0.45;;;;;;;10.40;63.26;95558.59;3390103;29;20569;-72
2021/11/30 00:23:38;;;;;;;1.55;0.47;;;;;;;10.42;63.34;95545.75;3391229;29;20051;-73
2021/11/30 00:25:19;;;;;;;2.22;0.60;;;;;;;10.42;63.31;95544.97;3391387;29;20503;-72
2021/11/30 00:27:00;;;;;;;0.40;0.40;;;;;;;10.42;63.44;95535.09;3390785;29;20055;-73
2021/11/30 00:28:41;;;;;;;3.40;0.40;;;;;;;10.44;63.55;95526.81;3390544;29;20443;-74
2021/11/30 00:30:22;;;;;;;0.50;0.50;;;;;;;10.45;63.52;95507.91;3389943;29;20044;-72
2021/11/30 00:32:04;;;;;;;0.73;0.50;;;;;;;10.43;63.41;95502.09;3390181;29;20411;-72
2021/11/30 00:33:46;;;;;;;0.73;0.60;;;;;;;10.45;63.52;95486.63;3389800;29;20123;-73
2021/11/30 00:35:27;;;;;;;0.50;0.50;;;;;;;10.47;63.48;95481.75;3388984;29;20044;-71
2021/11/30 00:37:08;;;;;;;0.65;0.45;;;;;;;10.46;63.30;95464.22;3390260;29;20036;-74
2021/11/30 00:38:49;;;;;;;1.48;0.50;;;;;;;10.50;63.55;95463.63;3389045;29;20048;-74
2021/11/30 00:40:30;;;;;;;0.47;0.40;;;;;;;10.51;63.65;95463.34;3389947;29;20055;-75
2021/11/30 00:42:11;;;;;;;1.13;0.50;;;;;;;10.52;63.60;95459.56;3389960;29;20040;-74
2021/11/30 00:43:54;;;;;;;0.38;0.38;;;;;;;10.53;63.72;95452.38;3389751;29;20209;-73
2021/11/30 00:45:50;;;;;;;0.75;0.50;;;;;;;10.52;63.63;95427.63;3389869;29;20499;-73
2021/11/30 00:47:33;;;;;;;0.40;0.40;;;;;;;10.51;63.70;95428.72;3389851;29;20048;-73
2021/11/30 00:49:14;;;;;;;0.50;0.50;;;;;;;10.51;63.56;95403.97;3390061;29;20044;-72
2021/11/30 00:50:54;;;;;;;0.75;0.57;;;;;;;10.48;63.77;95389.41;3389867;29;20200;-74
2021/11/30 00:52:36;;;;;;;1.85;0.43;;;;;;;10.48;63.72;95384.88;3389325;29;20043;-73
2021/11/30 00:54:18;;;;;;;0.70;0.43;;;;;;;10.47;63.68;95377.16;3375413;29;20508;-74
2021/11/30 00:55:58;;;;;;;0.35;0.35;;;;;;;10.46;63.80;95368.41;3383946;29;20048;-73
2021/11/30 00:57:40;;;;;;;0.50;0.35;;;;;;;10.47;63.57;95369.97;3386519;29;20132;-74
2021/11/30 00:59:26;;;;;;;0.60;0.50;;;;;;;10.48;63.76;95352.94;3385935;29;20456;-75
2021/11/30 01:01:07;;;;;;;1.92;0.57;;;;;;;10.46;63.77;95349.78;3389721;29;20526;-73
2021/11/30 01:02:48;;;;;;;0.40;0.40;;;;;;;10.45;63.52;95336.75;3389467;29;20043;-73
2021/11/30 01:04:29;;;;;;;0.83;0.40;;;;;;;10.45;63.83;95334.91;3389875;29;20072;-73
2021/11/30 01:06:10;;;;;;;0.75;0.60;;;;;;;10.44;63.65;95335.97;3390205;29;20295;-73
2021/11/30 01:07:50;;;;;;;1.65;0.50;;;;;;;10.43;63.56;95326.41;3388767;29;20044;-73
2021/11/30 01:09:31;;;;;;;0.82;0.40;;;;;;;10.41;63.71;95312.63;3390345;29;20075;-76
2021/11/30 01:11:12;;;;;;;0.57;0.57;;;;;;;10.42;63.83;95295.56;3389969;29;20401;-73
2021/11/30 01:12:53;;;;;;;0.55;0.55;;;;;;;10.42;63.85;95306.19;3389400;29;20044;-74
2021/11/30 01:14:34;;;;;;;1.77;0.60;;;;;;;10.43;64.04;95291.81;3376860;29;20080;-74
2021/11/30 01:16:14;;;;;;;0.47;0.43;;;;;;;10.43;64.19;95277.75;3376732;29;20069;-75
2021/11/30 01:17:55;;;;;;;0.47;0.47;;;;;;;10.45;63.99;95278.19;3376828;29;20051;-73
2021/11/30 01:19:36;;;;;;;0.52;0.50;;;;;;;10.46;63.97;95275.25;3376998;29;20044;-73
2021/11/30 01:21:16;;;;;;;4.28;0.30;;;;;;;10.44;64.07;95256.13;3379526;29;20051;-76
2021/11/30 01:22:57;;;;;;;1.45;0.60;;;;;;;10.45;64.04;95241.75;3385926;29;20095;-73
2021/11/30 01:24:38;;;;;;;0.43;0.43;;;;;;;10.47;64.14;95238.75;3389602;29;20525;-75
2021/11/30 01:26:18;;;;;;;0.57;0.57;;;;;;;10.47;64.24;95218.25;3388885;29;20130;-73
2021/11/30 01:27:59;;;;;;;0.57;0.40;;;;;;;10.48;64.43;95219.84;3389399;29;20040;-73
2021/11/30 01:29:40;;;;;;;0.88;0.52;;;;;;;10.50;64.56;95216.06;3389309;29;20040;-74
2021/11/30 01:31:21;;;;;;;0.40;0.40;;;;;;;10.51;64.38;95207.81;3389075;29;20037;-75
2021/11/30 01:33:04;;;;;;;0.40;0.40;;;;;;;10.52;64.46;95196.06;3387972;29;20526;-73
2021/11/30 01:34:44;;;;;;;0.73;0.65;;;;;;;10.50;64.35;95187.56;3399336;29;20071;-75
2021/11/30 01:36:25;;;;;;;2.38;0.68;;;;;;;10.51;64.30;95172.38;3391842;29;20103;-75
2021/11/30 01:38:06;;;;;;;0.50;0.50;;;;;;;10.51;64.14;95169.72;3388481;29;20047;-74
2021/11/30 01:39:48;;;;;;;0.77;0.43;;;;;;;10.51;64.34;95172.38;3389384;29;20048;-74
2021/11/30 01:41:32;;;;;;;0.40;0.40;;;;;;;10.50;64.26;95147.66;3389291;29;20518;-74
2021/11/30 01:43:18;;;;;;;0.50;0.50;;;;;;;10.48;64.49;95144.53;3388765;29;20095;-73
2021/11/30 01:45:07;;;;;;;1.92;0.50;;;;;;;10.49;64.33;95162.06;3388998;29;20051;-73
2021/11/30 01:50:37;;;;;;;0.75;0.50;;;;;;;10.52;64.59;95118.06;3387897;29;20103;-74
2021/11/30 01:52:19;;;;;;;0.73;0.73;;;;;;;10.53;64.67;95098.34;3388378;29;20055;-73
2021/11/30 01:53:59;;;;;;;0.68;0.60;;;;;;;10.55;64.45;95112.13;3388580;29;20039;-74
2021/11/30 01:55:43;;;;;;;0.50;0.50;;;;;;;10.55;64.73;95096.94;3389149;29;20044;-72
2021/11/30 01:57:25;;;;;;;1.55;0.60;;;;;;;10.57;64.58;95078.00;3388267;29;20574;-72
2021/11/30 01:59:06;;;;;;;;;;;;;;;10.66;64.32;95070.81;3386322;29;20046;-73
2021/11/30 02:00:47;;;;;;;0.50;0.50;;;;;;;10.61;64.56;95069.09;3388834;29;19915;-73
2021/11/30 02:02:28;;;;;;;0.90;0.63;;;;;;;10.60;64.79;95066.75;3388820;29;20424;-74
2021/11/30 02:04:09;;;;;;;0.60;0.60;;;;;;;10.58;64.71;95055.63;3400773;29;20036;-73
2021/11/30 02:05:50;;;;;;;0.68;0.68;;;;;;;10.57;64.83;95051.41;3391271;29;20047;-74
2021/11/30 02:07:30;;;;;;;0.60;0.60;;;;;;;10.57;64.95;95046.84;3388934;29;20535;-74
2021/11/30 02:09:11;;;;;;;5.35;1.25;;;;;;;10.58;64.99;95031.66;3389058;29;20460;-73
2021/11/30 02:10:54;;;;;;;1.20;0.60;;;;;;;10.58;65.25;95026.34;3388962;29;20134;-74
2021/11/30 02:12:37;;;;;;;1.13;1.05;;;;;;;10.58;65.38;95018.34;3388701;29;20419;-75
2021/11/30 02:14:17;;;;;;;0.60;0.60;;;;;;;10.61;65.36;95012.41;3388591;29;20039;-74
2021/11/30 02:16:01;;;;;;;3.40;0.60;;;;;;;10.60;65.38;95018.81;3388911;29;20072;-75
2021/11/30 02:17:42;;;;;;;1.35;0.70;;;;;;;10.60;65.48;94989.53;3389004;29;20139;-73
2021/11/30 02:19:22;;;;;;;0.68;0.63;;;;;;;10.62;65.38;95006.00;3389193;29;20044;-73
2021/11/30 02:21:05;;;;;;;1.10;1.00;;;;;;;10.62;65.16;95000.69;3387955;29;20053;-72
2021/11/30 02:22:56;;;;;;;1.77;0.70;;;;;;;10.62;65.13;94984.69;3388528;29;20590;-73
2021/11/30 02:24:38;;;;;;;1.02;0.80;;;;;;;10.63;65.30;94986.25;3387785;29;20118;-75
2021/11/30 02:26:18;;;;;;;0.98;0.75;;;;;;;10.63;65.41;94986.25;3388917;29;20389;-73
2021/11/30 02:27:59;;;;;;;0.73;0.73;;;;;;;10.62;65.34;94980.16;3394857;29;20939;-73
2021/11/30 02:29:40;;;;;;;1.35;0.80;;;;;;;10.63;65.40;94972.94;3391783;29;20074;-73
2021/11/30 02:31:21;;;;;;;0.70;0.70;;;;;;;10.62;65.45;94958.06;3392103;29;20051;-74
2021/11/30 02:33:03;;;;;;;0.70;0.70;;;;;;;10.62;65.48;94966.06;3378334;29;20056;-73
2021/11/30 02:34:44;;;;;;;0.65;0.60;;;;;;;10.60;65.46;94958.38;3390527;29;20047;-74
2021/11/30 02:36:35;;;;;;;1.65;1.30;;;;;;;10.58;65.35;94949.13;3394069;29;20055;-74
2021/11/30 02:38:16;;;;;;;0.80;0.70;;;;;;;10.59;65.42;94953.38;3399704;29;20062;-74
2021/11/30 02:39:56;;;;;;;1.00;0.80;;;;;;;10.56;65.29;94943.34;3389493;29;20081;-74
2021/11/30 02:41:38;;;;;;;1.05;0.65;;;;;;;10.55;65.55;94933.78;3401198;29;20135;-75
2021/11/30 02:43:19;;;;;;;0.82;0.82;;;;;;;10.56;65.38;94924.69;3391063;29;20094;-75
2021/11/30 02:45:00;;;;;;;0.93;0.70;;;;;;;10.57;65.23;94926.28;3387938;29;20130;-75
2021/11/30 02:46:42;;;;;;;1.05;0.82;;;;;;;10.57;65.72;94928.94;3388420;29;20046;-74
2021/11/30 02:48:23;;;;;;;0.77;0.68;;;;;;;10.57;65.81;94928.94;3388665;29;20051;-73
2021/11/30 02:50:04;;;;;;;0.70;0.70;;;;;;;10.57;65.78;94929.72;3388834;29;20050;-74
2021/11/30 02:51:47;;;;;;;1.23;0.80;;;;;;;10.58;65.92;94917.97;3383809;29;20036;-75
2021/11/30 02:53:28;;;;;;;1.30;1.20;;;;;;;10.60;65.87;94912.34;3388144;29;20044;-74
2021/11/30 02:55:09;;;;;;;1.10;0.80;;;;;;;10.60;66.00;94915.00;3387175;29;20074;-74
2021/11/30 02:56:54;;;;;;;0.95;0.73;;;;;;;10.61;66.05;94905.91;3386736;29;20542;-73
2021/11/30 02:58:34;;;;;;;1.23;0.80;;;;;;;10.65;66.03;94904.22;3388229;29;20533;-73
2021/11/30 03:00:15;;;;;;;0.70;0.70;;;;;;;10.65;65.97;94898.88;3388156;29;20068;-75
2021/11/30 03:01:59;;;;;;;8.00;0.98;;;;;;;10.67;66.00;94892.16;3388603;29;20114;-73
2021/11/30 03:03:40;;;;;;;1.13;1.00;;;;;;;10.70;66.00;94899.50;3388122;29;20044;-74
2021/11/30 03:05:20;;;;;;;0.80;0.73;;;;;;;10.74;65.96;94890.88;3391233;29;20083;-74
2021/11/30 03:07:03;;;;;;;1.40;0.77;;;;;;;10.75;66.06;94887.16;3387083;29;20036;-72
2021/11/30 03:08:44;;;;;;;0.65;0.65;;;;;;;10.77;66.05;94883.06;3388478;29;20051;-73
2021/11/30 03:10:25;;;;;;;1.30;1.00;;;;;;;10.78;66.01;94892.63;3388704;29;20122;-71
2021/11/30 03:12:06;;;;;;;1.30;0.60;;;;;;;10.80;66.04;94884.31;3388578;29;20426;-71
2021/11/30 03:13:47;;;;;;;1.08;0.90;;;;;;;10.82;66.30;94876.81;3387227;29;20058;-71
2021/11/30 03:15:28;;;;;;;0.70;0.70;;;;;;;10.85;66.36;94879.63;3388324;29;20040;-72
2021/11/30 03:17:09;;;;;;;2.15;1.00;;;;;;;10.88;66.60;94875.53;3389790;29;20142;-71
2021/11/30 03:18:50;;;;;;;1.48;0.98;;;;;;;10.91;66.75;94870.34;3390425;29;20071;-71
2021/11/30 03:20:33;;;;;;;1.10;1.00;;;;;;;10.95;66.70;94875.06;3391194;29;20048;-71
2021/11/30 03:22:13;;;;;;;0.80;0.80;;;;;;;10.98;66.84;94879.75;3389067;29;20040;-71
2021/11/30 03:23:55;;;;;;;2.10;0.80;;;;;;;11.00;66.95;94872.25;3390745;29;20044;-71
2021/11/30 03:25:36;;;;;;;0.90;0.88;;;;;;;11.02;67.07;94870.84;3388626;29;20048;-72
2021/11/30 03:27:17;;;;;;;1.15;0.80;;;;;;;11.05;66.85;94880.06;3391963;29;20234;-73
2021/11/30 03:29:00;;;;;;;2.00;0.85;;;;;;;11.05;67.21;94874.75;3389320;29;20044;-73
2021/11/30 03:30:52;;;;;;;2.15;0.93;;;;;;;11.07;67.19;94875.97;3389955;29;20127;-73
2021/11/30 03:34:17;;;;;;;1.00;0.90;;;;;;;11.12;67.65;94864.38;3390271;29;20044;-73
2021/11/30 03:35:58;;;;;;;4.57;0.98;;;;;;;11.13;67.75;94860.63;3391247;29;20135;-74
2021/11/30 03:37:38;;;;;;;2.80;1.20;;;;;;;11.16;67.84;94865.31;3390165;29;20447;-72
2021/11/30 03:39:21;;;;;;;1.88;1.13;;;;;;;11.20;68.01;94871.56;3390463;29;20047;-71
2021/11/30 03:41:02;;;;;;;1.17;0.80;;;;;;;11.23;67.99;94868.28;3397637;29;20047;-73
2021/11/30 03:42:43;;;;;;;2.10;1.10;;;;;;;11.23;67.90;94862.94;3396953;29;20467;-73
2021/11/30 03:44:24;;;;;;;1.20;0.88;;;;;;;11.26;68.00;94880.97;3394161;29;20043;-72
2021/11/30 03:46:05;;;;;;;2.35;1.00;;;;;;;11.28;68.34;94854.78;3395121;29;20044;-72
2021/11/30 03:47:46;;;;;;;1.03;0.80;;;;;;;11.32;68.38;94874.34;3399870;29;20040;-73
2021/11/30 03:49:28;;;;;;;0.70;0.70;;;;;;;11.35;68.87;94884.38;3398241;29;20292;-72
2021/11/30 03:51:09;;;;;;;1.20;0.70;;;;;;;11.37;68.98;94878.75;3397721;29;20112;-72
2021/11/30 03:52:50;;;;;;;0.43;0.43;;;;;;;11.44;69.01;94881.69;3390963;29;20519;-73
2021/11/30 03:54:30;;;;;;;8.57;1.00;;;;;;;11.43;68.86;94884.66;3390646;29;20048;-74
2021/11/30 03:56:11;;;;;;;1.38;0.63;;;;;;;11.45;69.08;94885.91;3391003;29;20103;-74
2021/11/30 03:57:52;;;;;;;0.60;0.60;;;;;;;11.44;69.19;94924.34;3390952;29;20043;-73
2021/11/30 03:59:32;;;;;;;0.93;0.50;;;;;;;11.45;69.18;94901.13;3389289;29;21024;-73
2021/11/30 04:01:14;;;;;;;0.40;0.30;;;;;;;11.44;69.14;94894.25;3389819;29;20360;-73
2021/11/30 04:02:55;;;;;;;;;;;;;;;11.53;68.84;94925.09;3388426;29;20083;-72
2021/11/30 04:04:41;;;;;;;0.30;0.30;;;;;;;11.54;69.04;94907.25;3389569;29;20389;-73
2021/11/30 04:06:22;;;;;;;0.40;0.40;;;;;;;11.53;68.72;94929.66;3390124;29;20048;-72
2021/11/30 04:08:03;;;;;;;0.35;0.20;;;;;;;11.49;68.58;94918.06;3390496;29;20151;-72
2021/11/30 04:09:45;;;;;;;0.30;0.30;;;;;;;11.44;68.38;94928.91;3390813;29;20084;-75
2021/11/30 04:11:25;;;;;;;;;;;;;;;11.47;68.01;94931.72;3391067;29;20157;-72
2021/11/30 04:13:06;;;;;;;0.75;0.30;;;;;;;11.39;68.21;94931.75;3390093;29;20492;-72
2021/11/30 04:14:47;;;;;;;0.57;0.30;;;;;;;11.35;68.17;94932.34;3402654;29;20043;-72
2021/11/30 04:16:28;;;;;;;0.52;0.30;;;;;;;11.30;67.99;94972.50;3393141;29;20134;-71
2021/11/30 04:18:08;;;;;;;2.28;0.38;;;;;;;11.25;67.90;94954.00;3390626;29;20132;-73
2021/11/30 04:19:49;;;;;;;1.35;0.50;;;;;;;11.22;67.83;94949.31;3390874;29;20503;-71
2021/11/30 04:21:30;;;;;;;0.30;0.30;;;;;;;11.23;67.49;94958.06;3390329;29;20131;-72
2021/11/30 04:23:11;;;;;;;0.60;0.40;;;;;;;11.24;67.71;94973.75;3389553;29;20055;-73
2021/11/30 04:24:52;;;;;;;0.35;0.30;;;;;;;11.27;67.86;94970.47;3390627;29;20140;-72
2021/11/30 04:26:32;;;;;;;6.22;0.65;;;;;;;11.22;67.57;94969.84;3390610;29;20083;-73
2021/11/30 04:28:13;;;;;;;1.17;0.40;;;;;;;11.22;67.52;94981.28;3388715;29;20143;-72
2021/11/30 04:29:54;;;;;;;0.20;0.20;;;;;;;11.18;67.49;94979.56;3389547;29;20040;-72
2021/11/30 04:31:35;;;;;;;0.30;0.30;;;;;;;11.17;67.34;94986.75;3402205;29;20144;-74
2021/11/30 04:33:16;;;;;;;0.33;0.30;;;;;;;11.19;67.57;95003.22;3392305;29;20055;-76
2021/11/30 04:34:57;;;;;;;0.30;0.30;;;;;;;11.18;67.54;95007.00;3402465;29;20283;-76
2021/11/30 04:36:38;;;;;;;0.32;0.30;;;;;;;11.12;67.50;95017.00;3392624;29;20543;-75
2021/11/30 04:38:18;;;;;;;8.40;0.77;;;;;;;11.16;68.79;95014.53;3390131;29;20040;-71
2021/11/30 04:39:59;;;;;;;0.30;0.30;;;;;;;11.19;68.75;95029.88;3389588;29;20048;-74
2021/11/30 04:41:42;;;;;;;4.28;0.50;;;;;;;11.24;68.31;95016.41;3389754;29;20048;-74
2021/11/30 04:43:24;;;;;;;0.90;0.90;;;;;;;11.30;67.75;95041.00;3390357;29;20515;-75
2021/11/30 04:45:11;;;;;;;0.75;0.68;;;;;;;11.31;67.41;95053.25;3387255;29;20044;-75
2021/11/30 04:46:55;;;;;;;1.10;0.40;;;;;;;11.30;67.12;95052.44;3389280;29;20154;-73
2021/11/30 04:48:39;;;;;;;2.47;0.38;;;;;;;11.27;66.94;95050.41;3390146;29;20074;-75
2021/11/30 04:50:22;;;;;;;1.13;0.40;;;;;;;11.23;66.80;95089.44;3389445;29;20039;-74
2021/11/30 04:52:05;;;;;;;0.60;0.43;;;;;;;11.22;67.23;95045.22;3388863;29;20048;-72
2021/11/30 04:53:46;;;;;;;4.28;0.57;;;;;;;11.39;69.05;95071.13;3390126;29;20507;-73
2021/11/30 04:55:30;;;;;;;2.38;0.55;;;;;;;11.48;68.15;95081.78;3390164;29;20043;-74
2021/11/30 04:57:10;;;;;;;0.40;0.32;;;;;;;11.51;67.57;95089.94;3390420;29;20047;-73
2021/11/30 04:58:51;;;;;;;0.65;0.20;;;;;;;11.46;66.64;95086.63;3390458;29;20050;-75
2021/11/30 05:00:33;;;;;;;1.60;0.40;;;;;;;11.42;66.07;95107.81;3388323;29;20099;-69
2021/11/30 05:02:14;;;;;;;;;;;;;;;11.48;66.09;95113.75;3389743;29;20075;-69
2021/11/30 05:03:57;;;;;;;0.40;0.40;;;;;;;11.42;66.37;95107.03;3388457;29;19950;-69
2021/11/30 05:05:39;;;;;;;0.35;0.30;;;;;;;11.41;66.11;95108.09;3389642;29;20055;-70
2021/11/30 05:07:20;;;;;;;;;;;;;;;11.48;65.80;95117.22;3389418;29;20044;-70
2021/11/30 05:09:02;;;;;;;0.55;0.20;;;;;;;11.39;65.62;95119.09;3388620;29;20397;-70
2021/11/30 05:10:43;;;;;;;0.28;0.28;;;;;;;11.37;65.59;95121.28;3401249;29;21373;-69
2021/11/30 05:12:24;;;;;;;1.05;0.77;;;;;;;11.42;66.13;95144.34;3391697;29;20173;-70
2021/11/30 05:14:07;;;;;;;3.00;0.65;;;;;;;11.47;65.95;95136.19;3389159;29;20052;-71
2021/11/30 05:15:47;;;;;;;1.65;0.40;;;;;;;11.44;65.73;95153.59;3388648;29;20046;-71
2021/11/30 05:17:28;;;;;;;1.98;0.50;;;;;;;11.38;65.11;95154.03;3388173;29;20040;-73
2021/11/30 05:19:09;;;;;;;0.82;0.40;;;;;;;11.26;65.23;95147.44;3389667;29;20052;-74
2021/11/30 05:20:51;;;;;;;0.30;0.30;;;;;;;11.19;64.98;95151.66;3389293;29;20388;-74
2021/11/30 05:22:32;;;;;;;0.47;0.30;;;;;;;11.08;64.99;95157.28;3389441;29;20084;-72
2021/11/30 05:24:15;;;;;;;1.27;0.50;;;;;;;11.03;65.11;95181.41;3389025;29;20044;-74
2021/11/30 05:26:03;;;;;;;1.58;0.40;;;;;;;11.03;66.81;95178.75;3401660;29;20047;-74
2021/11/30 05:27:44;;;;;;;1.40;0.40;;;;;;;11.11;67.07;95187.84;3390880;29;20044;-74
2021/11/30 05:29:24;;;;;;;1.30;0.30;;;;;;;11.16;66.32;95173.59;3389752;29;20040;-73
2021/11/30 05:31:07;;;;;;;0.38;0.32;;;;;;;11.14;65.84;95185.34;3388060;29;20052;-71
2021/11/30 05:32:48;;;;;;;;;;;;;;;11.20;65.58;95201.97;3401855;29;20040;-75
2021/11/30 05:34:28;;;;;;;0.20;0.20;;;;;;;11.11;65.66;95166.53;3390729;29;20409;-74
2021/11/30 05:36:09;;;;;;;0.30;0.30;;;;;;;11.04;65.25;95190.94;3387751;29;20051;-78
2021/11/30 05:37:50;;;;;;;2.15;0.35;;;;;;;10.98;65.08;95189.53;3389046;29;20155;-76
2021/11/30 05:39:30;;;;;;;0.30;0.30;;;;;;;10.93;65.05;95195.00;3388641;29;20048;-75
2021/11/30 05:41:11;;;;;;;1.02;0.40;;;;;;;10.88;65.36;95201.22;3388723;29;20088;-78
2021/11/30 05:42:52;;;;;;;0.63;0.40;;;;;;;10.90;65.66;95198.28;3389672;29;20044;-75
2021/11/30 05:44:34;;;;;;;0.47;0.40;;;;;;;10.91;65.30;95205.94;3401506;29;20044;-75
2021/11/30 05:46:14;;;;;;;0.40;0.30;;;;;;;10.93;65.23;95210.19;3384100;29;20296;-74
2021/11/30 05:47:56;;;;;;;0.47;0.30;;;;;;;10.87;65.19;95204.22;3388971;29;20570;-73
2021/11/30 05:49:38;;;;;;;1.42;0.40;;;;;;;10.89;65.28;95210.81;3389249;29;20131;-75
2021/11/30 05:51:20;;;;;;;2.10;0.60;;;;;;;10.92;65.34;95206.75;3389817;29;20103;-74
2021/11/30 05:53:02;;;;;;;1.10;0.40;;;;;;;10.96;65.28;95220.22;3388944;29;20040;-74
2021/11/30 05:54:43;;;;;;;0.47;0.43;;;;;;;10.96;65.29;95217.56;3385882;29;20047;-78
2021/11/30 05:56:24;;;;;;;2.10;0.55;;;;;;;10.97;65.57;95241.25;3372775;29;20107;-74
2021/11/30 05:58:05;;;;;;;0.73;0.35;;;;;;;10.99;65.54;95232.94;3382637;29;20055;-77
2021/11/30 05:59:46;;;;;;;0.50;0.50;;;;;;;11.00;65.70;95239.84;3385562;29;20573;-72
2021/11/30 06:01:31;;;;;;;0.30;0.20;;;;;;;11.00;65.42;95218.53;3387941;29;20288;-72
2021/11/30 06:03:30;;;;;;;2.38;0.77;;;;;;;10.99;64.91;95230.28;3387340;29;20127;-74
2021/11/30 06:05:11;;;;;;;0.60;0.32;;;;;;;10.93;64.75;95234.16;3387944;29;20047;-74
2021/11/30 06:06:52;;;;;;;3.15;0.32;;;;;;;10.87;64.79;95226.31;3387300;29;20051;-71
2021/11/30 06:08:32;;;;;;;1.75;0.30;;;;;;;10.82;64.48;95229.09;3387864;29;20602;-73
2021/11/30 06:10:13;;;;;;;0.47;0.30;;;;;;;10.78;64.42;95238.78;3389067;29;20040;-73
2021/11/30 06:11:56;;;;;;;0.50;0.40;;;;;;;10.75;64.57;95255.38;3387212;29;20043;-73
2021/11/30 06:13:37;;;;;;;1.02;0.50;;;;;;;10.72;64.46;95237.34;3388356;29;20443;-73
2021/11/30 06:15:17;;;;;;;1.00;0.40;;;;;;;10.71;64.67;95251.75;3400747;29;20052;-74
2021/11/30 06:16:58;;;;;;;1.05;0.30;;;;;;;10.67;64.23;95254.22;3390672;29;20039;-75
2021/11/30 06:18:39;;;;;;;0.88;0.40;;;;;;;10.60;64.43;95255.75;3388632;29;20047;-76
2021/11/30 06:20:21;;;;;;;0.77;0.50;;;;;;;10.58;64.65;95260.59;3401123;29;20103;-75
2021/11/30 06:22:02;;;;;;;0.63;0.38;;;;;;;10.53;64.72;95260.72;3391056;29;20091;-76
2021/11/30 06:23:43;;;;;;;1.35;0.30;;;;;;;10.56;64.80;95271.56;3388614;29;20044;-72
2021/11/30 06:25:25;;;;;;;3.35;0.60;;;;;;;10.61;65.13;95279.41;3387522;29;20139;-73
2021/11/30 06:27:05;;;;;;;;;;;;;;;10.75;64.86;95276.69;3387411;29;20071;-74
2021/11/30 06:28:46;;;;;;;0.40;0.40;;;;;;;10.74;64.64;95285.78;3387974;29;19915;-73
2021/11/30 06:30:27;;;;;;;2.83;0.73;;;;;;;10.72;64.75;95301.25;3387900;29;20588;-71
2021/11/30 06:32:10;;;;;;;1.00;0.43;;;;;;;10.76;64.82;95288.91;3388092;29;20134;-75
2021/11/30 06:33:51;;;;;;;1.00;0.30;;;;;;;10.82;65.33;95282.38;3387967;29;20068;-73
2021/11/30 06:35:32;;;;;;;0.32;0.32;;;;;;;10.84;65.10;95290.84;3384397;29;20111;-73
2021/11/30 06:37:13;;;;;;;0.30;0.30;;;;;;;10.81;64.79;95288.78;3385412;29;20099;-74
2021/11/30 06:38:57;;;;;;;0.60;0.57;;;;;;;10.75;64.47;95308.63;3388057;29;20039;-75
2021/11/30 06:40:37;;;;;;;0.65;0.45;;;;;;;10.68;64.23;95309.03;3388135;29;20040;-77
2021/11/30 06:42:19;;;;;;;0.40;0.40;;;;;;;10.62;64.65;95296.19;3389163;29;21016;-75
2021/11/30 06:43:59;;;;;;;0.60;0.50;;;;;;;10.62;64.64;95304.16;3388517;29;20755;-77
2021/11/30 06:45:42;;;;;;;2.05;0.50;;;;;;;10.62;64.89;95296.19;3388583;29;20296;-77
2021/11/30 06:47:23;;;;;;;0.50;0.50;;;;;;;10.63;64.71;95300.41;3400061;29;20042;-75
2021/11/30 06:49:04;;;;;;;3.53;0.47;;;;;;;10.61;64.60;95302.56;3387482;29;20616;-76
2021/11/30 06:50:45;;;;;;;0.93;0.57;;;;;;;10.56;64.17;95334.63;3398283;29;20294;-79
2021/11/30 06:52:26;;;;;;;0.73;0.50;;;;;;;10.51;64.00;95372.03;3388284;29;20304;-76
2021/11/30 06:54:07;;;;;;;0.57;0.38;;;;;;;10.44;63.75;95317.34;3388570;29;20105;-74
2021/11/30 06:55:47;;;;;;;4.65;0.50;;;;;;;10.46;66.16;95328.47;3387435;29;20459;-76
2021/11/30 06:57:28;;;;;;;1.20;0.50;;;;;;;10.51;66.58;95329.44;3387987;29;20496;-74
2021/11/30 06:59:09;;;;;;;2.67;0.50;;;;;;;10.59;65.68;95347.38;3387066;29;20048;-76
2021/11/30 07:00:52;;;;;;;0.50;0.50;;;;;;;10.64;64.78;95334.72;3387935;29;20044;-75
2021/11/30 07:02:35;;;;;;;0.32;0.32;;;;;;;10.67;64.51;95331.44;3388817;29;20407;-75
2021/11/30 07:04:17;;;;;;;3.58;0.43;;;;;;;10.70;63.79;95332.72;3388870;29;20130;-74
2021/11/30 07:06:25;;;;;;;1.85;0.40;;;;;;;10.67;63.13;95333.34;3388798;29;20068;-76
2021/11/30 07:08:23;;;;;;;1.60;0.30;;;;;;;10.63;63.11;95343.78;3387754;29;20052;-73
2021/11/30 07:13:47;;;;;;;0.60;0.45;;;;;;;10.62;63.19;95346.75;3386699;29;20059;-74
2021/11/30 07:15:28;;;;;;;1.67;0.65;;;;;;;10.64;63.23;95344.59;3388018;29;20518;-74
2021/11/30 07:17:09;;;;;;;1.05;0.70;;;;;;;10.64;62.95;95325.97;3388575;29;20134;-74
2021/11/30 07:18:49;;;;;;;0.38;0.30;;;;;;;10.67;62.47;95344.75;3388109;29;20063;-74
2021/11/30 07:20:30;;;;;;;0.82;0.35;;;;;;;10.65;62.04;95343.50;3386680;29;20077;-75
2021/11/30 07:22:11;;;;;;;1.45;0.40;;;;;;;10.62;62.03;95358.19;3388098;29;20044;-75
2021/11/30 07:23:52;;;;;;;0.47;0.40;;;;;;;10.57;62.03;95362.84;3387733;29;20032;-75
2021/11/30 07:25:34;;;;;;;0.93;0.40;;;;;;;10.56;61.57;95347.94;3400606;29;20424;-75
2021/11/30 07:27:14;;;;;;;0.85;0.45;;;;;;;10.55;61.53;95351.72;3387362;29;20416;-76
2021/11/30 07:28:56;;;;;;;4.80;0.50;;;;;;;10.51;61.80;95361.38;3388078;29;20187;-74
2021/11/30 07:30:37;;;;;;;0.77;0.43;;;;;;;10.50;61.49;95359.81;3388284;29;20040;-74
2021/11/30 07:32:18;;;;;;;1.70;0.50;;;;;;;10.51;61.53;95364.03;3388453;29;21283;-76
2021/11/30 07:34:00;;;;;;;0.50;0.40;;;;;;;10.55;61.78;95363.13;3387881;29;20471;-76
2021/11/30 07:35:41;;;;;;;2.08;0.60;;;;;;;10.57;61.72;95365.50;3387895;29;20055;-74
2021/11/30 07:37:22;;;;;;;0.57;0.30;;;;;;;10.55;61.50;95357.03;3375084;29;20104;-74
2021/11/30 07:39:03;;;;;;;0.63;0.32;;;;;;;10.52;61.29;95362.97;3381666;29;20040;-75
2021/11/30 07:40:44;;;;;;;1.77;0.55;;;;;;;10.50;61.35;95354.50;3387998;29;20091;-75
2021/11/30 07:42:30;;;;;;;0.63;0.50;;;;;;;10.49;61.52;95353.72;3388371;29;20044;-75
2021/11/30 07:44:10;;;;;;;1.20;0.63;;;;;;;10.46;61.09;95360.41;3388198;29;20056;-76
2021/11/30 07:45:51;;;;;;;1.67;0.60;;;;;;;10.43;60.91;95361.03;3388178;29;20567;-75
2021/11/30 07:47:32;;;;;;;0.52;0.52;;;;;;;10.39;61.25;95357.38;3388094;29;20092;-74
2021/11/30 07:49:13;;;;;;;1.35;0.50;;;;;;;10.39;61.41;95344.06;3388181;29;20048;-76
2021/11/30 07:50:55;;;;;;;0.57;0.50;;;;;;;10.46;61.60;95380.94;3386602;29;20032;-75
2021/11/30 07:52:39;;;;;;;1.02;0.52;;;;;;;10.44;61.40;95377.78;3387889;29;20055;-76
2021/11/30 07:54:20;;;;;;;1.00;0.40;;;;;;;10.41;61.31;95389.81;3387771;29;20528;-77
2021/11/30 07:56:01;;;;;;;0.50;0.50;;;;;;;10.36;61.28;95367.84;3387787;29;20044;-78
2021/11/30 07:57:42;;;;;;;0.88;0.57;;;;;;;10.30;61.29;95366.38;3387916;29;20035;-76
2021/11/30 07:59:22;;;;;;;0.65;0.50;;;;;;;10.23;61.08;95380.06;3388255;29;20579;-76
2021/11/30 08:01:03;;;;;;;0.75;0.50;;;;;;;10.17;61.01;95379.38;3388355;29;20044;-76
2021/11/30 08:02:45;;;;;;;1.10;0.40;;;;;;;10.08;61.13;95375.06;3387993;29;20036;-74
2021/11/30 08:04:26;;;;;;;1.58;0.60;;;;;;;10.09;61.02;95364.09;3389678;29;20579;-76
2021/11/30 08:06:06;;;;;;;1.17;0.52;;;;;;;10.04;61.21;95380.97;3401875;29;20142;-75
2021/11/30 08:07:47;;;;;;;0.40;0.40;;;;;;;9.95;60.69;95372.09;3392256;29;20047;-76
2021/11/30 08:09:32;;;;;;;0.22;0.22;;;;;;;9.83;60.50;95359.31;3389516;29;20036;-74
2021/11/30 08:11:13;;;;;;;0.40;0.40;;;;;;;9.85;60.65;95387.47;3390117;29;20076;-75
2021/11/30 08:12:54;;;;;;;0.30;0.30;;;;;;;9.81;60.13;95377.44;3390044;29;20044;-76